Accueil
METAR-TAF:

METAR-TAF

Aéroports :

Aéroport de Longyearbyen

Longyearbyen, Norvège

latitude: 78-15N, longitude: 015-28E, altitude: 2 m

Observation

Le bulletin a été fait il y a 37 minutes, à 06:20 UTC
Vent 5 kt de est/sud-est, variant entre est et sud/sud-est
Température 8°C
Humidité 76%
Pression 1012 hPa
Visibilité 10 km ou plus
Nuages fragmentés à une hauteur de 3100 ft

METAR: ENSB 120620Z 11005KT 080V150 9999 BKN031 08/04 Q1012 RMK WIND 1400FT VRB01KT

Heure: 08:57 (06:57 UTC)

Prévision

Prévision valable du 12 à 06 UTC au 13 à 06 UTC
Vent 5 kt de direction variable
Visibilité 10 km ou plus
Quelques nuages à une hauteur de 1500 ft
Nuages fragmentés à une hauteur de 3500 ft
Temporairement
du 12 à 09 UTC au 13 à 06 UTC
Vent 10 kt de ouest

TAF: ENSB 1206/1306 VRB05KT 9999 FEW015 BKN035 TEMPO 1209/1306 27010KT

Observations et prévisions météorologiques de plus de 4000 aéroports (messages METAR et TAF).

Les stations disponibles sont représentées par des disques jaunes et rouges sur la carte.

Passer la souris dessus pour voir le nom de la station.

Cliquer dessus pour voir les observations et prévisions météorologiques.

Pour changer de carte: cliquez sur les boutons verts avec une croix noire pour zoomer, sur le bouton vert avec un tiret pour effectuer un zoom arrière, ou sur les flèches vertes pour les cartes adjacentes.


METAR-TAF: